createdAt,value
2019-05-01T00:00:15.333Z,11.60
2019-05-01T00:02:39.540Z,11.60
2019-05-01T00:05:17.954Z,11.60
2019-05-01T00:07:49.162Z,11.60
2019-05-01T00:10:22.063Z,11.40
2019-05-01T00:12:52.966Z,11.30
2019-05-01T00:15:25.587Z,11.20
2019-05-01T00:17:56.636Z,11.20
2019-05-01T00:20:28.801Z,11.20
2019-05-01T00:22:59.638Z,11.10
2019-05-01T00:25:30.504Z,11.20
2019-05-01T00:28:01.827Z,11.10
2019-05-01T00:30:36.315Z,11.20
2019-05-01T00:33:07.182Z,11.10
2019-05-01T00:35:37.979Z,11.00
2019-05-01T00:38:08.848Z,11.00
2019-05-01T00:40:41.318Z,11.10
2019-05-01T00:43:12.292Z,11.00
2019-05-01T00:45:43.502Z,11.00
2019-05-01T00:48:14.348Z,11.10
2019-05-01T00:50:45.106Z,11.10
2019-05-01T00:53:15.984Z,11.00
2019-05-01T00:55:57.803Z,11.00
2019-05-01T00:58:30.277Z,11.00
2019-05-01T01:01:20.347Z,11.00
2019-05-01T01:03:51.720Z,11.00
2019-05-01T01:06:22.579Z,11.00
2019-05-01T01:08:53.483Z,10.90
2019-05-01T01:11:25.650Z,10.90
2019-05-01T01:13:56.625Z,10.90
2019-05-01T01:16:27.329Z,10.90
2019-05-01T01:18:58.259Z,10.90
2019-05-01T01:21:29.158Z,10.90
2019-05-01T01:24:00.568Z,10.90
2019-05-01T01:26:31.656Z,11.00
2019-05-01T01:29:02.631Z,11.00
2019-05-01T01:31:34.890Z,10.90
2019-05-01T01:34:06.749Z,11.00
2019-05-01T01:36:38.715Z,11.00
2019-05-01T01:39:09.685Z,11.00
2019-05-01T01:41:41.921Z,11.00
2019-05-01T01:44:17.466Z,11.00
2019-05-01T01:46:50.964Z,11.10
2019-05-01T01:49:21.827Z,11.10
2019-05-01T01:51:52.899Z,11.00
2019-05-01T01:54:23.880Z,11.10
2019-05-01T01:56:54.852Z,11.10
2019-05-01T01:59:26.249Z,11.10
2019-05-01T02:02:11.129Z,11.00
2019-05-01T02:04:49.339Z,11.00
2019-05-01T02:07:20.273Z,11.00
2019-05-01T02:09:51.163Z,10.90
2019-05-01T02:12:24.315Z,10.90
2019-05-01T02:14:55.115Z,10.90
2019-05-01T02:17:26.180Z,10.90
2019-05-01T02:19:58.511Z,10.90
2019-05-01T02:22:29.487Z,10.90
2019-05-01T02:25:00.487Z,10.80
2019-05-01T02:27:36.034Z,10.80
2019-05-01T02:30:09.099Z,10.80
2019-05-01T02:32:40.834Z,10.80
2019-05-01T02:35:12.054Z,10.70
2019-05-01T02:37:44.208Z,10.70
2019-05-01T02:40:42.201Z,10.70
2019-05-01T02:43:16.288Z,10.60
2019-05-01T02:45:50.016Z,10.70
2019-05-01T02:48:22.747Z,10.60
2019-05-01T02:50:58.667Z,10.60
2019-05-01T02:53:31.201Z,10.60
2019-05-01T02:56:19.773Z,10.60
2019-05-01T02:58:52.661Z,10.60
2019-05-01T03:01:25.948Z,10.60
2019-05-01T03:03:57.710Z,10.70
2019-05-01T03:06:30.799Z,10.60
2019-05-01T03:09:04.206Z,10.70
2019-05-01T03:11:38.133Z,10.70
2019-05-01T03:14:11.890Z,10.70
2019-05-01T03:16:44.284Z,10.60
2019-05-01T03:19:19.992Z,10.60
2019-05-01T03:21:56.472Z,10.60
2019-05-01T03:24:28.731Z,10.50
2019-05-01T03:27:00.934Z,10.60
2019-05-01T03:29:32.728Z,10.50
2019-05-01T03:32:17.306Z,10.50
2019-05-01T03:34:38.056Z,10.40
2019-05-01T03:37:10.013Z,10.30
2019-05-01T03:39:41.971Z,10.30
2019-05-01T03:42:13.108Z,10.20
2019-05-01T03:44:44.642Z,10.20
2019-05-01T03:47:15.550Z,10.10
2019-05-01T03:49:47.951Z,10.00
2019-05-01T03:52:19.226Z,10.00
2019-05-01T03:54:50.299Z,10.00
2019-05-01T03:57:21.606Z,10.00
2019-05-01T03:59:53.880Z,10.00
2019-05-01T04:02:34.379Z,10.00
2019-05-01T04:05:05.885Z,9.90
2019-05-01T04:07:37.094Z,9.80
2019-05-01T04:10:09.095Z,9.90
2019-05-01T04:12:40.642Z,9.90
2019-05-01T04:15:11.786Z,9.90
2019-05-01T04:17:47.785Z,9.90
2019-05-01T04:20:18.787Z,9.90
2019-05-01T04:22:49.892Z,9.90
2019-05-01T04:25:20.859Z,9.90
2019-05-01T04:27:53.217Z,9.90
2019-05-01T04:30:37.281Z,9.90
2019-05-01T04:33:10.152Z,9.90
2019-05-01T04:35:54.821Z,9.90
2019-05-01T04:38:26.038Z,9.90
2019-05-01T04:40:56.994Z,10.00
2019-05-01T04:43:27.991Z,9.90
2019-05-01T04:45:59.051Z,9.90
2019-05-01T04:48:30.976Z,10.00
2019-05-01T04:51:01.777Z,10.00
2019-05-01T04:53:32.574Z,10.10
2019-05-01T04:56:05.099Z,10.00
2019-05-01T04:58:36.032Z,10.10
2019-05-01T05:01:07.052Z,10.10
2019-05-01T05:03:38.242Z,10.20
2019-05-01T05:06:09.859Z,10.30
2019-05-01T05:08:40.901Z,10.30
2019-05-01T05:11:16.752Z,10.30
2019-05-01T05:14:05.611Z,10.40
2019-05-01T05:16:47.172Z,10.30
2019-05-01T05:19:19.426Z,10.30
2019-05-01T05:21:50.743Z,10.20
2019-05-01T05:24:21.854Z,10.50
2019-05-01T05:26:55.150Z,10.40
2019-05-01T05:29:26.786Z,10.50
2019-05-01T05:32:00.126Z,11.00
2019-05-01T05:34:32.645Z,11.30
2019-05-01T05:37:11.172Z,12.10
2019-05-01T05:39:44.333Z,13.00
2019-05-01T05:42:15.794Z,13.20
2019-05-01T05:44:48.200Z,13.50
2019-05-01T05:47:20.179Z,13.50
2019-05-01T05:49:51.427Z,12.70
2019-05-01T05:52:42.051Z,12.40
2019-05-01T05:55:23.385Z,12.00
2019-05-01T05:57:58.625Z,11.60
2019-05-01T06:00:45.528Z,11.50
2019-05-01T06:03:36.240Z,11.20
2019-05-01T06:06:27.040Z,11.00
2019-05-01T06:09:00.234Z,11.10
2019-05-01T06:11:53.921Z,11.20
2019-05-01T06:14:40.305Z,11.30
2019-05-01T06:17:12.922Z,11.60
2019-05-01T06:19:54.855Z,11.60
2019-05-01T06:22:33.802Z,11.60
2019-05-01T06:25:24.433Z,11.50
2019-05-01T06:27:50.452Z,11.40
2019-05-01T06:30:22.440Z,11.20
2019-05-01T06:32:53.500Z,11.20
2019-05-01T06:35:24.864Z,11.20
2019-05-01T06:38:02.274Z,11.40
2019-05-01T06:40:42.620Z,11.40
2019-05-01T06:43:20.112Z,11.40
2019-05-01T06:45:55.624Z,11.50
2019-05-01T06:48:28.148Z,11.30
2019-05-01T06:51:07.776Z,11.40
2019-05-01T06:53:39.976Z,11.70
2019-05-01T06:56:11.234Z,11.80
2019-05-01T06:58:42.125Z,11.80
2019-05-01T07:01:13.751Z,11.70
2019-05-01T07:04:02.829Z,11.70
2019-05-01T07:06:19.720Z,12.10
2019-05-01T07:08:51.241Z,12.50
2019-05-01T07:11:24.427Z,12.70
2019-05-01T07:13:56.268Z,12.70
2019-05-01T07:16:27.057Z,12.80
2019-05-01T07:19:05.909Z,13.10
2019-05-01T07:21:32.784Z,14.40
2019-05-01T07:24:03.842Z,14.60
2019-05-01T07:26:35.855Z,14.60
2019-05-01T07:29:17.620Z,14.90
2019-05-01T07:31:48.599Z,15.60
2019-05-01T07:34:21.685Z,15.00
2019-05-01T07:36:53.561Z,14.10
2019-05-01T07:39:24.490Z,14.20
2019-05-01T07:42:00.016Z,14.80
2019-05-01T07:44:33.868Z,15.70
2019-05-01T07:47:17.625Z,16.00
2019-05-01T07:49:54.708Z,15.90
2019-05-01T07:52:28.080Z,15.70
2019-05-01T07:55:00.996Z,15.50
2019-05-01T07:57:34.299Z,15.70
2019-05-01T08:00:18.158Z,15.90
2019-05-01T08:02:49.716Z,15.40
2019-05-01T08:05:25.579Z,14.90
2019-05-01T08:08:02.823Z,14.90
2019-05-01T08:10:33.985Z,15.30
2019-05-01T08:13:10.123Z,15.80
2019-05-01T08:15:45.957Z,15.40
2019-05-01T08:18:36.191Z,15.60
2019-05-01T08:21:26.078Z,15.60
2019-05-01T08:23:57.730Z,15.80
2019-05-01T08:26:31.753Z,15.80
2019-05-01T08:29:23.287Z,15.40
2019-05-01T08:32:04.697Z,15.30
2019-05-01T08:34:49.179Z,15.20
2019-05-01T08:37:22.529Z,15.50
2019-05-01T08:39:52.284Z,16.00
2019-05-01T08:42:23.852Z,15.90
2019-05-01T08:45:06.934Z,16.30
2019-05-01T08:47:42.829Z,16.20
2019-05-01T08:50:19.819Z,16.30
2019-05-01T08:52:52.867Z,16.10
2019-05-01T08:55:26.721Z,16.00
2019-05-01T08:57:58.958Z,16.10
2019-05-01T09:00:30.915Z,16.70
2019-05-01T09:03:08.431Z,17.60
2019-05-01T09:05:39.510Z,17.90
2019-05-01T09:08:10.508Z,19.50
2019-05-01T09:10:43.756Z,21.00
2019-05-01T09:13:18.850Z,21.80
2019-05-01T09:15:49.441Z,21.10
2019-05-01T09:18:20.543Z,21.60
2019-05-01T09:20:53.181Z,22.00
2019-05-01T09:23:25.513Z,22.90
2019-05-01T09:26:14.553Z,23.80
2019-05-01T09:28:44.092Z,23.30
2019-05-01T09:31:16.602Z,23.40
2019-05-01T09:33:56.747Z,23.00
2019-05-01T09:36:28.584Z,23.20
2019-05-01T09:39:00.513Z,23.30
2019-05-01T09:41:38.384Z,22.80
2019-05-01T09:44:10.680Z,23.30
2019-05-01T09:46:42.947Z,24.30
2019-05-01T09:49:19.406Z,25.00
2019-05-01T09:51:58.227Z,25.40
2019-05-01T09:54:38.406Z,25.10
2019-05-01T09:57:09.993Z,26.10
2019-05-01T09:59:41.252Z,25.60
2019-05-01T10:02:14.139Z,26.00
2019-05-01T10:04:49.037Z,25.20
2019-05-01T10:07:23.835Z,25.30
2019-05-01T10:09:56.128Z,26.60
2019-05-01T10:15:02.097Z,27.10
2019-05-01T10:17:33.430Z,27.90
2019-05-01T10:20:07.840Z,25.90
2019-05-01T10:22:39.936Z,24.30
2019-05-01T10:25:13.687Z,22.40
2019-05-01T10:27:49.115Z,21.40
2019-05-01T10:30:37.845Z,21.90
2019-05-01T10:33:13.840Z,21.70
2019-05-01T10:36:03.637Z,22.00
2019-05-01T10:38:34.929Z,21.80
2019-05-01T10:41:09.291Z,23.10
2019-05-01T10:43:41.074Z,23.20
2019-05-01T10:46:13.054Z,24.00
2019-05-01T10:48:43.936Z,23.20
2019-05-01T10:51:16.168Z,23.50
2019-05-01T10:53:47.135Z,23.80
2019-05-01T10:56:18.252Z,22.80
2019-05-01T10:58:49.218Z,21.80
2019-05-01T11:01:33.995Z,21.70
2019-05-01T11:04:05.363Z,22.10
2019-05-01T11:06:36.470Z,21.30
2019-05-01T11:09:08.037Z,21.20
2019-05-01T11:11:40.187Z,20.40
2019-05-01T11:14:11.122Z,20.40
2019-05-01T11:16:42.120Z,21.90
2019-05-01T11:19:13.275Z,22.40
2019-05-01T11:21:45.780Z,21.50
2019-05-01T11:24:16.794Z,21.80
2019-05-01T11:26:47.860Z,21.10
2019-05-01T11:29:18.977Z,20.00
2019-05-01T11:32:01.483Z,19.50
2019-05-01T11:34:36.958Z,19.50
2019-05-01T11:37:25.889Z,19.40
2019-05-01T11:40:04.639Z,19.70
2019-05-01T11:42:35.477Z,19.90
2019-05-01T11:45:12.566Z,19.80
2019-05-01T11:47:43.502Z,20.10
2019-05-01T11:50:15.581Z,20.10
2019-05-01T11:52:46.497Z,22.40
2019-05-01T11:55:17.260Z,24.00
2019-05-01T11:57:48.188Z,25.20
2019-05-01T12:00:20.510Z,25.80
2019-05-01T12:02:51.279Z,24.90
2019-05-01T12:05:22.210Z,25.40
2019-05-01T12:07:53.116Z,25.80
2019-05-01T12:10:25.312Z,24.50
2019-05-01T12:12:56.156Z,25.40
2019-05-01T12:15:27.156Z,25.90
2019-05-01T12:17:57.939Z,25.00
2019-05-01T12:20:28.785Z,25.20
2019-05-01T12:22:59.595Z,25.90
2019-05-01T12:25:30.465Z,25.50
2019-05-01T12:28:01.437Z,24.60
2019-05-01T12:30:32.256Z,24.70
2019-05-01T12:33:03.052Z,24.90
2019-05-01T12:35:33.876Z,25.10
2019-05-01T12:38:06.142Z,24.70
2019-05-01T12:40:37.133Z,24.90
2019-05-01T12:43:08.021Z,24.20
2019-05-01T12:45:38.979Z,23.90
2019-05-01T12:48:11.412Z,25.30
2019-05-01T12:50:42.289Z,25.90
2019-05-01T12:53:17.645Z,26.30
2019-05-01T12:55:53.213Z,26.00
2019-05-01T12:58:25.528Z,26.70
2019-05-01T13:00:56.685Z,25.60
2019-05-01T13:03:27.471Z,25.40
2019-05-01T13:05:58.219Z,24.80
2019-05-01T13:08:30.198Z,23.80
2019-05-01T13:11:01.621Z,24.00
2019-05-01T13:13:32.491Z,24.00
2019-05-01T13:16:03.424Z,24.20
2019-05-01T13:18:34.462Z,24.20
2019-05-01T13:21:05.368Z,24.40
2019-05-01T13:23:36.340Z,25.00
2019-05-01T13:26:08.953Z,25.70
2019-05-01T13:28:48.370Z,25.00
2019-05-01T13:31:37.354Z,25.10
2019-05-01T13:34:09.686Z,23.90
2019-05-01T13:36:40.409Z,24.30
2019-05-01T13:39:12.205Z,24.90
2019-05-01T13:41:43.112Z,24.20
2019-05-01T13:44:14.372Z,24.00
2019-05-01T13:46:46.120Z,24.10
2019-05-01T13:49:16.950Z,24.50
2019-05-01T13:51:47.757Z,24.40
2019-05-01T13:54:18.753Z,24.10
2019-05-01T13:56:50.852Z,23.70
2019-05-01T13:59:21.827Z,23.90
2019-05-01T14:01:52.795Z,23.80
2019-05-01T14:04:24.599Z,23.80
2019-05-01T14:06:55.568Z,23.50
2019-05-01T14:09:28.143Z,24.10
2019-05-01T14:11:58.994Z,23.40
2019-05-01T14:14:30.429Z,23.40
2019-05-01T14:17:02.266Z,23.50
2019-05-01T14:19:34.699Z,24.00
2019-05-01T14:22:10.431Z,24.10
2019-05-01T14:24:42.964Z,23.50
2019-05-01T14:27:14.036Z,23.60
2019-05-01T14:29:45.427Z,23.60
2019-05-01T14:32:16.175Z,24.20
2019-05-01T14:34:46.971Z,23.60
2019-05-01T14:37:29.004Z,23.60
2019-05-01T14:39:50.161Z,22.50
2019-05-01T14:42:20.855Z,22.30
2019-05-01T14:44:51.654Z,22.50
2019-05-01T14:47:22.423Z,22.60
2019-05-01T14:49:53.293Z,22.60
2019-05-01T14:52:24.227Z,23.10
2019-05-01T14:54:55.165Z,22.40
2019-05-01T14:57:25.917Z,22.20
2019-05-01T14:59:57.327Z,22.00
2019-05-01T15:02:28.073Z,21.80
2019-05-01T15:04:58.855Z,22.30
2019-05-01T15:07:42.124Z,22.30
2019-05-01T15:10:05.924Z,21.80
2019-05-01T15:12:37.155Z,21.60
2019-05-01T15:15:24.990Z,21.90
2019-05-01T15:17:57.447Z,21.70
2019-05-01T15:20:29.295Z,21.40
2019-05-01T15:23:00.039Z,21.50
2019-05-01T15:25:30.913Z,21.30
2019-05-01T15:28:01.806Z,21.10
2019-05-01T15:30:32.606Z,20.30
2019-05-01T15:33:03.567Z,19.90
2019-05-01T15:35:35.465Z,20.00
2019-05-01T15:38:07.732Z,19.70
2019-05-01T15:40:41.149Z,19.50
2019-05-01T15:43:25.860Z,19.40
2019-05-01T15:45:57.239Z,19.50
2019-05-01T15:48:29.608Z,19.30
2019-05-01T15:51:00.498Z,19.10
2019-05-01T15:53:31.279Z,19.10
2019-05-01T15:56:02.528Z,19.20
2019-05-01T15:58:34.302Z,19.40
2019-05-01T16:01:05.429Z,19.40
2019-05-01T16:03:36.645Z,19.10
2019-05-01T16:06:08.438Z,18.90
2019-05-01T16:08:40.802Z,18.80
2019-05-01T16:11:30.971Z,18.90
2019-05-01T16:14:02.192Z,18.80
2019-05-01T16:16:33.098Z,18.80
2019-05-01T16:19:05.430Z,18.60
2019-05-01T16:21:36.207Z,18.50
2019-05-01T16:24:06.983Z,18.30
2019-05-01T16:26:38.951Z,18.30
2019-05-01T16:29:09.659Z,18.50
2019-05-01T16:31:42.180Z,18.30
2019-05-01T16:34:13.098Z,18.20
2019-05-01T16:36:44.131Z,18.50
2019-05-01T16:39:24.268Z,18.50
2019-05-01T16:41:55.252Z,18.40
2019-05-01T16:44:25.967Z,18.20
2019-05-01T16:46:56.817Z,18.10
2019-05-01T16:49:29.260Z,18.00
2019-05-01T16:52:00.398Z,17.90
2019-05-01T16:54:31.733Z,18.00
2019-05-01T16:57:02.652Z,17.90
2019-05-01T16:59:35.387Z,17.90
2019-05-01T17:02:19.525Z,17.60
2019-05-01T17:04:58.681Z,17.40
2019-05-01T17:07:33.937Z,17.40
2019-05-01T17:10:08.171Z,17.30
2019-05-01T17:12:49.519Z,16.90
2019-05-01T17:15:28.440Z,16.90
2019-05-01T17:17:59.309Z,16.90
2019-05-01T17:20:30.723Z,16.70
2019-05-01T17:23:01.696Z,16.50
2019-05-01T17:25:32.568Z,16.30
2019-05-01T17:28:08.288Z,16.30
2019-05-01T17:30:48.561Z,16.20
2019-05-01T17:33:20.793Z,16.00
2019-05-01T17:35:51.951Z,15.80
2019-05-01T17:38:23.024Z,15.80
2019-05-01T17:40:55.020Z,15.70
2019-05-01T17:43:27.289Z,15.60
2019-05-01T17:45:58.232Z,15.40
2019-05-01T17:48:33.543Z,15.30
2019-05-01T17:51:01.980Z,15.20
2019-05-01T17:53:34.861Z,15.10
2019-05-01T17:56:09.958Z,15.10
2019-05-01T17:58:38.365Z,14.90
2019-05-01T18:01:14.727Z,14.90
2019-05-01T18:03:52.101Z,15.00
2019-05-01T18:06:29.186Z,14.80
2019-05-01T18:09:03.466Z,14.70
2019-05-01T18:11:36.405Z,14.50
2019-05-01T18:14:11.407Z,14.30
2019-05-01T18:16:44.209Z,14.30
2019-05-01T18:19:16.969Z,14.20
2019-05-01T18:21:51.944Z,14.20
2019-05-01T18:24:44.191Z,14.10
2019-05-01T18:27:21.747Z,14.00
2019-05-01T18:29:56.221Z,14.00
2019-05-01T18:32:36.478Z,13.80
2019-05-01T18:35:14.214Z,13.60
2019-05-01T18:37:47.346Z,13.50
2019-05-01T18:40:27.692Z,13.40
2019-05-01T18:43:01.602Z,13.40
2019-05-01T18:45:52.190Z,13.30
2019-05-01T18:48:25.969Z,13.20
2019-05-01T18:50:58.367Z,13.30
2019-05-01T18:53:30.920Z,13.10
2019-05-01T18:56:07.785Z,13.00
2019-05-01T18:58:41.814Z,13.00
2019-05-01T19:01:14.788Z,13.00
2019-05-01T19:03:46.144Z,12.90
2019-05-01T19:06:18.606Z,12.80
2019-05-01T19:08:50.323Z,12.80
2019-05-01T19:11:22.807Z,12.60
2019-05-01T19:13:55.076Z,12.70
2019-05-01T19:16:29.352Z,12.50
2019-05-01T19:19:03.929Z,12.40
2019-05-01T19:21:36.320Z,12.20
2019-05-01T19:24:09.094Z,12.10
2019-05-01T19:26:42.634Z,12.00
2019-05-01T19:29:16.035Z,12.00
2019-05-01T19:31:48.635Z,11.90
2019-05-01T19:34:21.005Z,11.90
2019-05-01T19:36:54.870Z,11.60
2019-05-01T19:39:28.490Z,11.50
2019-05-01T19:42:02.805Z,11.50
2019-05-01T19:44:36.560Z,11.40
2019-05-01T19:47:09.200Z,11.40
2019-05-01T19:49:41.051Z,11.40
2019-05-01T19:52:13.708Z,11.40
2019-05-01T19:54:48.068Z,11.30
2019-05-01T19:57:22.427Z,11.30
2019-05-01T19:59:55.127Z,11.30
2019-05-01T20:02:27.146Z,11.30
2019-05-01T20:05:02.443Z,11.20
2019-05-01T20:07:34.896Z,11.10
2019-05-01T20:10:10.305Z,11.10
2019-05-01T20:12:44.166Z,11.10
2019-05-01T20:15:19.814Z,11.00
2019-05-01T20:17:51.528Z,10.90
2019-05-01T20:20:25.468Z,10.80
2019-05-01T20:22:57.205Z,10.80
2019-05-01T20:25:31.119Z,10.60
2019-05-01T20:28:04.207Z,10.70
2019-05-01T20:30:37.165Z,10.70
2019-05-01T20:33:12.673Z,10.60
2019-05-01T20:35:44.091Z,10.50
2019-05-01T20:38:15.610Z,10.30
2019-05-01T20:40:46.745Z,10.10
2019-05-01T20:43:18.017Z,10.20
2019-05-01T20:45:51.300Z,10.10
2019-05-01T20:48:25.177Z,10.10
2019-05-01T20:50:56.670Z,10.20
2019-05-01T20:53:29.645Z,10.10
2019-05-01T20:56:12.881Z,10.10
2019-05-01T20:58:45.283Z,10.10
2019-05-01T21:01:16.600Z,10.00
2019-05-01T21:03:52.494Z,10.00
2019-05-01T21:06:23.364Z,10.00
2019-05-01T21:08:59.421Z,9.90
2019-05-01T21:11:48.771Z,9.80
2019-05-01T21:14:22.851Z,9.80
2019-05-01T21:16:55.268Z,9.70
2019-05-01T21:19:28.716Z,9.60
2019-05-01T21:21:59.214Z,9.60
2019-05-01T21:24:31.128Z,9.50
2019-05-01T21:27:03.479Z,9.40
2019-05-01T21:29:34.932Z,9.50
2019-05-01T21:32:06.335Z,9.40
2019-05-01T21:34:38.654Z,9.40
2019-05-01T21:37:11.829Z,9.30
2019-05-01T21:39:43.746Z,9.20
2019-05-01T21:42:16.030Z,9.20
2019-05-01T21:44:48.519Z,9.10
2019-05-01T21:47:23.648Z,9.20
2019-05-01T21:49:55.244Z,9.10
2019-05-01T21:52:27.059Z,9.10
2019-05-01T21:54:58.515Z,9.00
2019-05-01T21:57:32.563Z,9.00
2019-05-01T22:00:02.859Z,9.00
2019-05-01T22:02:36.652Z,8.90
2019-05-01T22:05:08.263Z,8.90
2019-05-01T22:07:39.528Z,8.80
2019-05-01T22:10:12.550Z,8.80
2019-05-01T22:12:49.124Z,8.80
2019-05-01T22:15:28.035Z,8.80
2019-05-01T22:18:06.551Z,8.80
2019-05-01T22:20:39.367Z,8.70
2019-05-01T22:23:11.840Z,8.60
2019-05-01T22:25:44.381Z,8.70
2019-05-01T22:28:18.785Z,8.60
2019-05-01T22:30:51.099Z,8.60
2019-05-01T22:33:21.975Z,8.50
2019-05-01T22:35:53.739Z,8.50
2019-05-01T22:38:24.771Z,8.40
2019-05-01T22:41:07.246Z,8.30
2019-05-01T22:43:38.510Z,8.30
2019-05-01T22:46:11.202Z,8.30
2019-05-01T22:48:43.698Z,8.20
2019-05-01T22:51:16.216Z,8.10
2019-05-01T22:53:49.784Z,8.10
2019-05-01T22:56:20.598Z,8.10
2019-05-01T22:58:52.683Z,8.00
2019-05-01T23:01:23.767Z,7.90
2019-05-01T23:03:56.358Z,8.00
2019-05-01T23:06:27.341Z,7.90
2019-05-01T23:08:59.313Z,7.90
2019-05-01T23:11:32.941Z,7.90
2019-05-01T23:14:03.896Z,7.90
2019-05-01T23:16:36.515Z,7.80
2019-05-01T23:19:08.959Z,7.70
2019-05-01T23:21:40.161Z,7.60
2019-05-01T23:24:11.029Z,7.60
2019-05-01T23:26:41.975Z,7.60
2019-05-01T23:29:14.074Z,7.50
2019-05-01T23:31:45.115Z,7.60
2019-05-01T23:34:15.949Z,7.50
2019-05-01T23:36:47.910Z,7.40
2019-05-01T23:39:20.053Z,7.20
2019-05-01T23:41:52.653Z,7.10
2019-05-01T23:44:23.516Z,7.20
2019-05-01T23:46:54.302Z,7.10
2019-05-01T23:49:26.779Z,7.00
2019-05-01T23:51:58.643Z,7.00
2019-05-01T23:54:30.019Z,7.00
2019-05-01T23:57:00.969Z,7.00
2019-05-01T23:59:33.077Z,7.00
